createdAt,value
2019-02-26T04:08:55.973Z,79.40
2019-02-26T04:09:31.345Z,79.40
2019-02-26T04:10:07.012Z,79.30
2019-02-26T04:10:42.600Z,79.20
2019-02-26T04:11:19.984Z,79.20
2019-02-26T04:11:56.079Z,79.20
2019-02-26T04:12:36.006Z,79.00
2019-02-26T04:13:09.187Z,79.20
2019-02-26T04:13:46.007Z,79.00
2019-02-26T04:14:23.571Z,79.10
2019-02-26T04:14:59.855Z,79.90
2019-02-26T04:15:36.447Z,79.20
2019-02-26T04:16:12.680Z,79.30
2019-02-26T04:16:48.225Z,79.30
2019-02-26T04:17:27.905Z,79.50
2019-02-26T04:18:01.061Z,79.50
2019-02-26T04:18:37.102Z,79.40
2019-02-26T04:19:12.738Z,79.40
2019-02-26T04:19:48.304Z,79.40
2019-02-26T04:20:26.921Z,79.50
2019-02-26T04:21:05.704Z,79.50
2019-02-26T04:22:15.868Z,79.70
2019-02-26T04:22:53.201Z,79.70
2019-02-26T04:23:29.515Z,79.70
2019-02-26T04:24:05.903Z,79.70
2019-02-26T04:24:42.662Z,79.70
2019-02-26T04:25:22.222Z,79.80
2019-02-26T04:26:46.871Z,79.80
2019-02-26T04:27:47.215Z,79.80
2019-02-26T04:28:47.489Z,79.80
2019-02-26T04:29:54.931Z,79.80
2019-02-26T04:31:10.845Z,79.80
2019-02-26T04:32:12.117Z,79.80
2019-02-26T04:33:14.178Z,79.80
2019-02-26T04:34:09.659Z,79.80
2019-02-26T04:35:12.289Z,79.70
2019-02-26T04:36:22.348Z,79.60
2019-02-26T04:37:16.746Z,79.50
2019-02-26T04:38:38.960Z,79.40
2019-02-26T04:40:11.895Z,79.40
2019-02-26T04:41:06.051Z,79.40
2019-02-26T04:42:03.298Z,79.30
2019-02-26T04:43:20.407Z,79.40
2019-02-26T04:44:58.167Z,79.50
2019-02-26T04:46:10.359Z,79.50
2019-02-26T04:47:21.393Z,79.60
2019-02-26T04:47:58.293Z,79.60
2019-02-26T04:48:35.495Z,79.50
2019-02-26T04:49:11.050Z,79.60
2019-02-26T04:49:46.925Z,79.60
2019-02-26T04:50:26.089Z,79.60
2019-02-26T04:50:59.826Z,79.60
2019-02-26T04:51:36.355Z,79.60
2019-02-26T04:52:14.297Z,79.80
2019-02-26T04:52:50.834Z,79.80
2019-02-26T04:53:28.627Z,79.80
2019-02-26T04:54:03.626Z,79.80
2019-02-26T04:54:39.687Z,79.70
2019-02-26T04:55:15.642Z,79.80
2019-02-26T04:55:51.583Z,79.80
2019-02-26T04:56:31.260Z,79.70
2019-02-26T04:57:04.384Z,79.90
2019-02-26T04:57:42.589Z,79.90
2019-02-26T04:58:18.438Z,79.90
2019-02-26T04:58:54.693Z,80.00
2019-02-26T04:59:32.266Z,80.30
2019-02-26T05:00:10.404Z,80.30
2019-02-26T05:00:44.905Z,80.30
2019-02-26T05:01:20.716Z,80.40
2019-02-26T05:01:57.497Z,80.40
2019-02-26T05:02:33.849Z,80.50
2019-02-26T05:03:11.863Z,80.60
2019-02-26T05:03:48.201Z,80.70
2019-02-26T05:04:23.746Z,80.80
2019-02-26T05:04:59.305Z,80.80
2019-02-26T05:05:37.109Z,80.80
2019-02-26T05:06:12.384Z,80.80
2019-02-26T05:06:48.179Z,80.80
2019-02-26T05:07:24.106Z,80.80
2019-02-26T05:07:59.655Z,80.80
2019-02-26T05:08:37.673Z,80.80
2019-02-26T05:09:12.679Z,80.80
2019-02-26T05:09:51.073Z,80.80
2019-02-26T05:10:27.062Z,80.80
2019-02-26T05:11:03.228Z,80.70
2019-02-26T05:11:40.783Z,80.60
2019-02-26T05:12:16.015Z,80.60
2019-02-26T05:12:54.098Z,80.50
2019-02-26T05:13:30.221Z,80.40
2019-02-26T05:14:06.782Z,80.20
2019-02-26T05:14:43.286Z,80.30
2019-02-26T05:15:20.970Z,80.20
2019-02-26T05:15:56.430Z,80.20
2019-02-26T05:16:34.654Z,80.30
2019-02-26T05:17:09.525Z,80.40
2019-02-26T05:17:45.109Z,80.30
2019-02-26T05:18:23.090Z,80.30
2019-02-26T05:18:58.506Z,80.40
2019-02-26T05:19:36.505Z,80.40
2019-02-26T05:20:13.425Z,80.40
2019-02-26T05:20:49.227Z,80.50
2019-02-26T05:21:27.185Z,80.50
2019-02-26T05:22:04.362Z,80.50
2019-02-26T05:22:39.269Z,80.70
2019-02-26T05:23:14.815Z,80.60
2019-02-26T05:23:52.312Z,80.70
2019-02-26T05:24:28.584Z,80.60
2019-02-26T05:25:07.193Z,80.70
2019-02-26T05:25:42.960Z,80.80
2019-02-26T05:26:20.793Z,80.80
2019-02-26T05:26:56.473Z,80.80
2019-02-26T05:27:32.019Z,80.80
2019-02-26T05:28:11.502Z,81.00
2019-02-26T05:28:47.024Z,81.30
2019-02-26T05:29:22.235Z,80.90
2019-02-26T05:29:57.771Z,81.20
2019-02-26T05:30:33.314Z,80.80
2019-02-26T05:31:11.256Z,80.70
2019-02-26T05:31:46.135Z,80.70
2019-02-26T05:32:24.040Z,80.60
2019-02-26T05:33:00.798Z,80.60
2019-02-26T05:33:36.282Z,80.60
2019-02-26T05:34:12.439Z,80.60
2019-02-26T05:34:50.821Z,80.70
2019-02-26T05:35:27.085Z,80.70
2019-02-26T05:36:06.054Z,80.80
2019-02-26T05:36:43.531Z,80.90
2019-02-26T05:37:18.449Z,81.00
2019-02-26T05:37:56.209Z,81.00
2019-02-26T05:38:32.977Z,81.00
2019-02-26T05:39:08.932Z,81.10
2019-02-26T05:39:46.808Z,81.10
2019-02-26T05:40:22.341Z,81.00
2019-02-26T05:40:58.023Z,81.00
2019-02-26T05:41:33.569Z,81.10
2019-02-26T05:42:09.193Z,81.00
2019-02-26T05:42:44.731Z,81.00
2019-02-26T05:43:23.150Z,81.00
2019-02-26T05:44:01.869Z,80.90
2019-02-26T05:44:36.230Z,81.00
2019-02-26T05:45:11.783Z,80.90
2019-02-26T05:45:48.571Z,80.90
2019-02-26T05:46:27.032Z,80.90
2019-02-26T05:47:02.038Z,80.90
2019-02-26T05:47:37.574Z,80.80
2019-02-26T05:48:15.208Z,80.80
2019-02-26T05:48:51.197Z,80.60
2019-02-26T05:49:26.843Z,80.60
2019-02-26T05:50:03.899Z,80.60
2019-02-26T05:50:42.147Z,80.80
2019-02-26T05:51:17.571Z,80.90
2019-02-26T05:51:53.981Z,80.90
2019-02-26T05:52:33.120Z,81.00
2019-02-26T05:53:11.264Z,81.10
2019-02-26T05:53:47.012Z,81.00
2019-02-26T05:54:24.409Z,81.10
2019-02-26T05:55:01.094Z,81.10
2019-02-26T05:55:36.725Z,81.10
2019-02-26T05:56:14.421Z,81.20
2019-02-26T05:56:49.920Z,81.10
2019-02-26T05:57:32.151Z,81.30
2019-02-26T05:58:02.972Z,81.30
2019-02-26T05:58:39.481Z,81.30
2019-02-26T05:59:17.831Z,81.40
2019-02-26T05:59:53.398Z,81.40
2019-02-26T06:00:32.708Z,81.50
2019-02-26T06:01:06.475Z,81.40
2019-02-26T06:01:43.728Z,81.50
2019-02-26T06:02:21.663Z,81.50
2019-02-26T06:02:56.568Z,81.50
2019-02-26T06:03:32.219Z,81.60
2019-02-26T06:04:10.059Z,81.70
2019-02-26T06:04:46.738Z,81.50
2019-02-26T06:05:23.261Z,81.60
2019-02-26T06:06:00.504Z,81.60
2019-02-26T06:06:36.389Z,81.60
2019-02-26T06:07:11.930Z,81.50
2019-02-26T06:07:47.774Z,81.50
2019-02-26T06:08:25.880Z,81.50
2019-02-26T06:09:02.878Z,81.90
2019-02-26T06:09:39.712Z,81.40
2019-02-26T06:10:15.261Z,81.50
2019-02-26T06:10:50.995Z,81.50
2019-02-26T06:11:30.860Z,81.50
2019-02-26T06:12:04.412Z,81.50
2019-02-26T06:12:41.498Z,81.50
2019-02-26T06:13:17.251Z,81.50
2019-02-26T06:13:52.837Z,81.40
2019-02-26T06:14:31.081Z,81.40
2019-02-26T06:15:08.080Z,81.50
2019-02-26T06:15:43.248Z,81.40
2019-02-26T06:16:19.765Z,81.40
2019-02-26T06:16:56.079Z,81.40
2019-02-26T06:17:31.633Z,81.30
2019-02-26T06:18:07.227Z,81.30
2019-02-26T06:18:45.950Z,81.30
2019-02-26T06:19:39.596Z,81.10
2019-02-26T06:20:17.215Z,81.20
2019-02-26T06:20:53.527Z,81.00
2019-02-26T06:21:29.998Z,80.90
2019-02-26T06:22:05.610Z,80.80
2019-02-26T06:22:41.190Z,80.70
2019-02-26T06:23:16.738Z,80.60
2019-02-26T06:23:52.707Z,80.50
2019-02-26T06:24:29.720Z,80.70
2019-02-26T06:25:09.610Z,80.60
2019-02-26T06:25:43.358Z,80.40
2019-02-26T06:26:18.924Z,80.50
2019-02-26T06:26:55.689Z,80.50
2019-02-26T06:27:36.740Z,80.40
2019-02-26T06:28:15.525Z,80.40
2019-02-26T06:28:54.977Z,80.20
2019-02-26T06:29:32.640Z,80.30
2019-02-26T06:30:12.222Z,80.00
2019-02-26T06:30:49.630Z,80.50
2019-02-26T06:31:27.671Z,80.30
2019-02-26T06:32:11.975Z,80.30
2019-02-26T06:32:51.412Z,80.50
2019-02-26T06:33:34.082Z,80.50
2019-02-26T06:34:11.323Z,80.60
2019-02-26T06:34:47.756Z,80.60
2019-02-26T06:35:26.769Z,80.60
2019-02-26T06:36:08.485Z,80.60
2019-02-26T06:36:46.622Z,80.60
2019-02-26T06:37:23.914Z,80.70
2019-02-26T06:38:02.597Z,80.80
2019-02-26T06:38:43.841Z,80.60
2019-02-26T06:39:24.213Z,80.90
2019-02-26T06:40:00.472Z,81.00
2019-02-26T06:40:42.341Z,80.80
2019-02-26T06:41:18.970Z,81.00
2019-02-26T06:41:55.907Z,80.80
2019-02-26T06:42:33.340Z,81.10
2019-02-26T06:43:08.763Z,81.10
2019-02-26T06:43:47.678Z,81.20
2019-02-26T06:44:21.644Z,81.30
2019-02-26T06:44:57.213Z,81.40
2019-02-26T06:45:32.810Z,81.40
2019-02-26T06:46:11.223Z,81.50
2019-02-26T06:46:45.968Z,81.50
2019-02-26T06:47:23.360Z,81.50
2019-02-26T06:47:58.785Z,81.40
2019-02-26T06:48:34.338Z,81.40
2019-02-26T06:49:10.875Z,81.40
2019-02-26T06:49:48.545Z,81.40
2019-02-26T06:50:24.887Z,81.40
2019-02-26T06:51:02.173Z,81.30
2019-02-26T06:51:37.705Z,81.40
2019-02-26T06:52:15.403Z,81.40
2019-02-26T06:52:50.897Z,81.40
2019-02-26T06:53:27.699Z,81.40
2019-02-26T06:54:03.252Z,81.50
2019-02-26T06:54:39.780Z,81.40
2019-02-26T06:55:15.338Z,81.40
2019-02-26T06:55:51.931Z,81.50
2019-02-26T06:56:27.746Z,81.40
2019-02-26T06:57:03.290Z,81.50
2019-02-26T06:57:41.317Z,81.60
2019-02-26T06:58:20.733Z,81.60
2019-02-26T06:58:56.266Z,81.80
2019-02-26T06:59:34.289Z,81.70
2019-02-26T07:00:11.559Z,81.80
2019-02-26T07:00:48.155Z,81.90
2019-02-26T07:01:24.347Z,82.00
2019-02-26T07:01:59.966Z,82.00
2019-02-26T07:02:35.506Z,82.10
2019-02-26T07:03:11.050Z,82.10
2019-02-26T07:03:46.603Z,82.10
2019-02-26T07:04:22.167Z,82.10
2019-02-26T07:04:57.724Z,82.10
2019-02-26T07:05:33.262Z,82.20
2019-02-26T07:06:09.070Z,82.10
2019-02-26T07:06:44.627Z,82.10
2019-02-26T07:07:20.194Z,82.10
2019-02-26T07:07:57.144Z,82.10
2019-02-26T07:08:33.250Z,82.10
2019-02-26T07:09:11.051Z,82.10
2019-02-26T07:09:46.911Z,82.20
2019-02-26T07:10:25.775Z,82.10
2019-02-26T07:10:59.975Z,82.10
2019-02-26T07:11:37.834Z,82.10
2019-02-26T07:12:14.581Z,82.90
2019-02-26T07:12:50.656Z,82.30
2019-02-26T07:13:26.278Z,82.20
2019-02-26T07:14:03.605Z,82.20
2019-02-26T07:14:39.345Z,82.10
2019-02-26T07:15:15.162Z,82.10
2019-02-26T07:15:51.682Z,82.20
2019-02-26T07:16:27.230Z,82.10
2019-02-26T07:17:02.783Z,82.20
2019-02-26T07:17:40.671Z,82.20
2019-02-26T07:18:19.013Z,82.20
2019-02-26T07:18:53.307Z,82.30
2019-02-26T07:19:30.856Z,82.30
2019-02-26T07:20:06.394Z,82.30
2019-02-26T07:20:46.644Z,82.40
2019-02-26T07:21:19.494Z,82.40
2019-02-26T07:21:55.033Z,82.50
2019-02-26T07:22:30.574Z,82.50
2019-02-26T07:23:08.234Z,82.40
2019-02-26T07:23:43.723Z,82.50
2019-02-26T07:24:20.669Z,82.70
2019-02-26T07:24:56.536Z,82.70
2019-02-26T07:25:34.530Z,82.90
2019-02-26T07:26:10.908Z,82.80
2019-02-26T07:26:48.299Z,83.00
2019-02-26T07:27:24.066Z,83.10
2019-02-26T07:28:01.199Z,83.10
2019-02-26T07:28:39.184Z,83.10
2019-02-26T07:29:17.527Z,83.10
2019-02-26T07:29:52.979Z,83.10
2019-02-26T07:30:28.567Z,83.20
2019-02-26T07:31:05.509Z,83.20
2019-02-26T07:31:41.328Z,83.70
2019-02-26T07:32:17.909Z,84.00
2019-02-26T07:32:54.346Z,83.90
2019-02-26T07:33:32.170Z,84.00
2019-02-26T07:34:07.379Z,84.20
2019-02-26T07:34:44.826Z,84.20
2019-02-26T07:35:20.156Z,84.20
2019-02-26T07:35:57.360Z,84.10
2019-02-26T07:36:33.879Z,84.00
2019-02-26T07:37:11.691Z,84.00
2019-02-26T07:37:47.193Z,84.00
2019-02-26T07:38:23.015Z,84.10
2019-02-26T07:39:01.200Z,84.20
2019-02-26T07:39:40.241Z,84.10
2019-02-26T07:40:16.343Z,84.00
2019-02-26T07:40:54.321Z,84.10
2019-02-26T07:41:30.404Z,84.10
2019-02-26T07:42:07.420Z,84.10
2019-02-26T07:42:45.525Z,84.20
2019-02-26T07:43:22.506Z,84.10
2019-02-26T07:43:59.949Z,84.00
2019-02-26T07:44:35.421Z,84.00
2019-02-26T07:45:14.925Z,84.10
2019-02-26T07:45:48.239Z,84.20
2019-02-26T07:46:23.802Z,84.30
2019-02-26T07:47:00.920Z,84.40
2019-02-26T07:47:37.826Z,84.60
2019-02-26T07:48:16.119Z,84.50
2019-02-26T07:48:53.621Z,84.50
2019-02-26T07:49:27.848Z,84.50
2019-02-26T07:50:04.651Z,84.40
2019-02-26T07:50:43.590Z,84.50
2019-02-26T07:51:17.947Z,84.50
2019-02-26T07:51:55.509Z,84.40
2019-02-26T07:52:33.047Z,84.50
2019-02-26T07:53:08.662Z,84.60
2019-02-26T07:53:48.603Z,84.50
2019-02-26T07:54:21.702Z,84.50
2019-02-26T07:54:58.304Z,84.60
2019-02-26T07:55:35.418Z,84.50
2019-02-26T07:56:11.094Z,84.60
2019-02-26T07:56:46.742Z,84.50
2019-02-26T07:57:23.024Z,84.60
2019-02-26T07:57:59.749Z,84.60
2019-02-26T07:58:36.083Z,84.60
2019-02-26T07:59:15.000Z,84.50
2019-02-26T07:59:50.283Z,84.60
2019-02-26T08:00:26.882Z,84.60
2019-02-26T08:01:03.044Z,84.70
2019-02-26T08:01:39.879Z,84.80
2019-02-26T08:02:15.803Z,84.60
2019-02-26T08:02:54.796Z,84.50
2019-02-26T08:03:29.990Z,84.50
2019-02-26T08:04:06.247Z,84.50
2019-02-26T08:04:43.612Z,84.50
2019-02-26T08:05:21.310Z,84.40
2019-02-26T08:05:58.916Z,84.40
2019-02-26T08:06:36.254Z,84.30
2019-02-26T08:07:11.942Z,84.20
2019-02-26T08:07:48.678Z,84.20
2019-02-26T08:08:25.008Z,84.10
2019-02-26T08:09:00.568Z,84.20
2019-02-26T08:09:39.659Z,84.20
2019-02-26T08:10:16.890Z,84.10
2019-02-26T08:10:53.582Z,84.20
2019-02-26T08:11:29.396Z,84.30
2019-02-26T08:12:06.724Z,84.40
2019-02-26T08:12:42.690Z,84.40
2019-02-26T08:13:19.405Z,84.40
2019-02-26T08:13:56.764Z,84.50
2019-02-26T08:14:32.158Z,84.60
2019-02-26T08:15:10.503Z,84.80
2019-02-26T08:15:46.960Z,84.90
2019-02-26T08:16:24.861Z,84.70
2019-02-26T08:17:01.912Z,84.70
2019-02-26T08:17:37.226Z,84.60
2019-02-26T08:18:13.062Z,84.40
2019-02-26T08:18:49.444Z,84.30
2019-02-26T08:19:29.404Z,84.30
2019-02-26T08:20:06.793Z,84.30
2019-02-26T08:20:41.676Z,84.30
2019-02-26T08:21:17.731Z,84.30
2019-02-26T08:21:55.018Z,84.30
2019-02-26T08:22:34.114Z,84.30
2019-02-26T08:23:09.190Z,84.40
2019-02-26T08:23:46.155Z,84.40
2019-02-26T08:24:24.599Z,84.40
2019-02-26T08:24:59.859Z,84.40
2019-02-26T08:25:35.411Z,84.40
2019-02-26T08:26:11.208Z,84.40
2019-02-26T08:26:47.550Z,84.40
2019-02-26T08:27:25.845Z,84.20
2019-02-26T08:28:01.434Z,84.10
2019-02-26T08:28:38.835Z,84.20
2019-02-26T08:29:14.192Z,84.00
2019-02-26T08:29:51.592Z,83.90
2019-02-26T08:30:27.105Z,84.10
2019-02-26T08:31:02.772Z,84.10
2019-02-26T08:31:38.392Z,84.10
2019-02-26T08:32:18.071Z,84.10
2019-02-26T08:32:54.285Z,84.00
2019-02-26T08:33:29.620Z,83.80
2019-02-26T08:34:05.166Z,83.80
2019-02-26T08:34:40.754Z,83.70
2019-02-26T08:35:18.807Z,83.70
2019-02-26T08:35:56.143Z,83.70
2019-02-26T08:36:31.042Z,83.70
2019-02-26T08:37:06.578Z,83.60
2019-02-26T08:37:42.132Z,83.50
2019-02-26T08:38:17.774Z,83.50
2019-02-26T08:38:56.427Z,83.50
2019-02-26T08:39:31.494Z,83.50
2019-02-26T08:40:09.560Z,83.30
2019-02-26T08:40:45.470Z,83.20
2019-02-26T08:41:21.247Z,83.10
2019-02-26T08:42:03.096Z,83.00
2019-02-26T08:42:39.842Z,83.10
2019-02-26T08:43:15.391Z,83.20
2019-02-26T08:43:51.509Z,83.10
2019-02-26T08:44:28.248Z,83.30
2019-02-26T08:45:04.116Z,83.20
2019-02-26T08:45:39.671Z,83.10
2019-02-26T08:46:17.154Z,82.80
2019-02-26T08:46:53.454Z,82.90
2019-02-26T08:47:28.985Z,82.80
2019-02-26T08:48:04.527Z,82.70
2019-02-26T08:48:41.372Z,83.50
2019-02-26T08:49:18.537Z,82.60
2019-02-26T08:49:54.826Z,82.60
2019-02-26T08:50:33.041Z,82.70
2019-02-26T08:51:10.711Z,82.60
2019-02-26T08:51:44.909Z,82.50
2019-02-26T08:52:22.840Z,82.50
2019-02-26T08:52:58.793Z,82.40
2019-02-26T08:53:34.327Z,82.50
2019-02-26T08:54:09.868Z,82.30
2019-02-26T08:54:45.642Z,82.30
2019-02-26T08:55:24.494Z,82.20
2019-02-26T08:56:01.539Z,82.00
2019-02-26T08:56:38.701Z,82.10
2019-02-26T08:57:14.434Z,82.00
2019-02-26T08:57:51.979Z,81.80
2019-02-26T08:58:28.257Z,81.70
2019-02-26T08:59:04.478Z,81.70
2019-02-26T08:59:42.073Z,81.50
2019-02-26T09:00:17.701Z,81.40
2019-02-26T09:00:53.342Z,81.40
2019-02-26T09:01:28.909Z,81.30
2019-02-26T09:02:04.450Z,81.20
2019-02-26T09:02:41.210Z,81.20
2019-02-26T09:03:19.889Z,81.10
2019-02-26T09:03:55.842Z,81.00
2019-02-26T09:04:32.283Z,80.90
2019-02-26T09:05:09.850Z,81.00
2019-02-26T09:05:45.538Z,81.00
2019-02-26T09:06:21.078Z,81.00
2019-02-26T09:06:57.573Z,81.00
2019-02-26T09:07:34.366Z,81.10
2019-02-26T09:08:11.418Z,81.00
2019-02-26T09:08:47.122Z,80.90
2019-02-26T09:09:23.512Z,80.90
2019-02-26T09:09:59.939Z,80.80
2019-02-26T09:10:36.448Z,80.80
2019-02-26T09:11:13.630Z,80.70
2019-02-26T09:11:50.954Z,80.90
2019-02-26T09:12:27.350Z,80.80
2019-02-26T09:13:02.962Z,80.80
2019-02-26T09:13:38.875Z,80.80
2019-02-26T09:14:16.715Z,80.70
2019-02-26T09:14:52.377Z,80.70
2019-02-26T09:15:29.034Z,80.70
2019-02-26T09:16:06.147Z,80.70
2019-02-26T09:16:42.655Z,80.40
2019-02-26T09:17:20.877Z,80.40
2019-02-26T09:17:55.687Z,80.40
2019-02-26T09:18:35.434Z,80.20
2019-02-26T09:19:08.718Z,80.10
2019-02-26T09:19:44.258Z,79.90
2019-02-26T09:20:19.821Z,79.70
2019-02-26T09:20:55.370Z,79.80
2019-02-26T09:21:31.164Z,79.60
2019-02-26T09:22:09.670Z,80.00
2019-02-26T09:22:47.858Z,79.40
2019-02-26T09:23:23.532Z,79.20
2019-02-26T09:24:01.908Z,79.20
2019-02-26T09:24:36.959Z,79.10
2019-02-26T09:25:13.751Z,78.70
2019-02-26T09:25:54.153Z,78.60
2019-02-26T09:26:26.882Z,78.50
2019-02-26T09:27:04.841Z,78.50
2019-02-26T09:27:42.962Z,78.40
2019-02-26T09:28:16.902Z,78.20
2019-02-26T09:28:54.864Z,78.20
2019-02-26T09:29:29.725Z,78.00
2019-02-26T09:30:10.495Z,78.00
2019-02-26T09:30:44.374Z,77.80
2019-02-26T09:31:19.999Z,77.70
2019-02-26T09:31:55.555Z,77.50
2019-02-26T09:32:32.722Z,77.40
2019-02-26T09:33:10.919Z,77.40
2019-02-26T09:33:45.844Z,77.10
2019-02-26T09:34:21.382Z,77.00
2019-02-26T09:34:58.845Z,76.90
2019-02-26T09:35:34.402Z,76.70
2019-02-26T09:36:12.621Z,76.60
2019-02-26T09:36:50.641Z,76.50
2019-02-26T09:37:24.828Z,76.30
2019-02-26T09:38:01.347Z,76.40
2019-02-26T09:38:39.156Z,76.40
2019-02-26T09:39:15.468Z,76.30
2019-02-26T09:39:52.054Z,76.10
2019-02-26T09:40:29.232Z,75.90
2019-02-26T09:41:05.664Z,75.50
2019-02-26T09:41:43.357Z,75.50
2019-02-26T09:42:18.563Z,75.20
2019-02-26T09:42:56.763Z,75.00
2019-02-26T09:43:31.355Z,75.00
2019-02-26T09:44:08.966Z,74.90
2019-02-26T09:44:44.687Z,74.60
2019-02-26T09:45:22.530Z,74.50
2019-02-26T09:45:57.530Z,74.30
2019-02-26T09:46:35.816Z,74.10
2019-02-26T09:47:10.610Z,74.00
2019-02-26T09:47:47.861Z,74.10
2019-02-26T09:48:23.650Z,74.10
2019-02-26T09:49:00.902Z,73.90
2019-02-26T09:49:36.780Z,73.90
2019-02-26T09:50:12.842Z,73.80
2019-02-26T09:50:49.630Z,73.10
2019-02-26T09:51:25.171Z,73.20
2019-02-26T09:52:01.552Z,73.00
2019-02-26T09:52:38.257Z,72.40
2019-02-26T09:53:14.306Z,72.40
2019-02-26T09:53:51.995Z,72.20
2019-02-26T09:54:27.106Z,72.10
2019-02-26T09:55:02.662Z,72.00
2019-02-26T09:55:38.459Z,70.80
2019-02-26T09:56:14.249Z,70.20
2019-02-26T09:56:49.774Z,70.00
2019-02-26T09:57:26.351Z,69.50
2019-02-26T09:58:02.709Z,69.20
2019-02-26T09:58:40.417Z,68.20
2019-02-26T09:59:16.562Z,68.10
2019-02-26T09:59:54.671Z,68.00
2019-02-26T10:00:29.938Z,67.50
2019-02-26T10:01:06.860Z,67.50
2019-02-26T10:01:43.076Z,67.30
2019-02-26T10:02:20.013Z,67.10
2019-02-26T10:02:56.046Z,66.70
2019-02-26T10:03:36.258Z,66.00
2019-02-26T10:04:08.916Z,65.90
2019-02-26T10:04:45.000Z,66.40
2019-02-26T10:05:22.732Z,65.80
2019-02-26T10:05:58.275Z,65.30
2019-02-26T10:06:34.939Z,65.40
2019-02-26T10:07:13.792Z,65.10
2019-02-26T10:07:48.691Z,65.00
2019-02-26T10:08:25.405Z,64.80
2019-02-26T10:09:10.675Z,64.70
2019-02-26T10:09:48.310Z,64.30
2019-02-26T10:10:22.536Z,64.10
2019-02-26T10:11:00.225Z,63.40
2019-02-26T10:11:35.399Z,64.30
2019-02-26T10:12:13.515Z,63.10
2019-02-26T10:12:48.230Z,62.90
2019-02-26T10:13:25.193Z,62.70
2019-02-26T10:14:02.909Z,62.30
2019-02-26T10:14:39.530Z,61.40
2019-02-26T10:15:15.284Z,61.00
2019-02-26T10:15:50.840Z,61.10
2019-02-26T10:16:28.143Z,61.00
2019-02-26T10:17:03.738Z,60.70
2019-02-26T10:17:40.928Z,60.40
2019-02-26T10:18:16.535Z,60.20
2019-02-26T10:18:54.319Z,60.10
2019-02-26T10:19:31.548Z,60.00
2019-02-26T10:20:12.331Z,59.80
2019-02-26T10:20:49.918Z,59.60
2019-02-26T10:21:25.430Z,59.40
2019-02-26T10:22:03.573Z,58.20
2019-02-26T10:22:40.410Z,57.90
2019-02-26T10:23:16.113Z,57.90
2019-02-26T10:23:53.696Z,57.70
2019-02-26T10:24:30.233Z,57.60
2019-02-26T10:25:06.962Z,57.50
2019-02-26T10:25:42.586Z,57.30
2019-02-26T10:26:18.134Z,57.30
2019-02-26T10:26:53.947Z,57.00
2019-02-26T10:27:33.706Z,56.80
2019-02-26T10:28:09.620Z,56.60
2019-02-26T10:28:46.832Z,56.40
2019-02-26T10:29:21.802Z,56.10
2019-02-26T10:29:57.737Z,55.60
2019-02-26T10:30:35.984Z,55.50
2019-02-26T10:31:10.869Z,54.80
2019-02-26T10:31:46.664Z,54.80
2019-02-26T10:32:24.279Z,55.20
2019-02-26T10:33:02.810Z,54.40
2019-02-26T10:33:40.179Z,53.80
2019-02-26T10:34:15.675Z,52.60
2019-02-26T10:34:51.618Z,52.50
2019-02-26T10:35:33.096Z,52.50
2019-02-26T10:36:05.408Z,52.60
2019-02-26T10:36:44.156Z,52.50
2019-02-26T10:37:19.106Z,52.30
2019-02-26T10:37:56.852Z,52.30
2019-02-26T10:38:33.637Z,52.20
2019-02-26T10:39:09.439Z,52.10
2019-02-26T10:39:47.893Z,51.70
2019-02-26T10:40:23.148Z,51.60
2019-02-26T10:40:59.694Z,51.40
2019-02-26T10:41:39.329Z,50.10
2019-02-26T10:42:14.342Z,50.40
2019-02-26T10:42:50.873Z,50.30
2019-02-26T10:43:26.418Z,50.10
2019-02-26T10:44:02.126Z,49.70
2019-02-26T10:44:37.707Z,49.70
2019-02-26T10:45:13.631Z,49.70
2019-02-26T10:45:50.528Z,49.50
2019-02-26T10:46:26.842Z,49.40
2019-02-26T10:47:04.051Z,49.40
2019-02-26T10:47:40.107Z,49.30
2019-02-26T10:48:16.835Z,48.70
2019-02-26T10:48:53.122Z,49.20
2019-02-26T10:49:28.858Z,47.90
2019-02-26T10:50:05.590Z,47.60
2019-02-26T10:50:43.037Z,47.80
2019-02-26T10:51:26.045Z,47.60
2019-02-26T10:51:57.854Z,46.80
2019-02-26T10:52:33.449Z,46.80
2019-02-26T10:53:13.138Z,46.70
2019-02-26T10:53:46.559Z,46.60
2019-02-26T10:54:22.187Z,46.60
2019-02-26T10:54:57.782Z,46.50
2019-02-26T10:55:38.375Z,46.30
2019-02-26T10:56:10.818Z,45.90
2019-02-26T10:56:46.470Z,45.60
2019-02-26T10:57:22.103Z,45.50
2019-02-26T10:57:58.619Z,45.40
2019-02-26T10:58:34.919Z,45.10
2019-02-26T10:59:12.701Z,44.60
2019-02-26T10:59:47.828Z,44.50
2019-02-26T11:00:25.945Z,44.50
2019-02-26T11:01:05.153Z,44.20
2019-02-26T11:01:39.187Z,44.30
2019-02-26T11:02:17.304Z,43.90
2019-02-26T11:02:54.132Z,43.90
2019-02-26T11:03:29.989Z,43.90
2019-02-26T11:04:05.676Z,43.80
2019-02-26T11:04:44.034Z,43.20
2019-02-26T11:05:20.862Z,43.40
2019-02-26T11:05:55.963Z,43.30
2019-02-26T11:06:33.741Z,42.90
2019-02-26T11:07:11.474Z,42.30
2019-02-26T11:07:46.276Z,42.40
2019-02-26T11:08:24.539Z,42.50
2019-02-26T11:09:01.789Z,42.60
2019-02-26T11:09:37.951Z,42.40
2019-02-26T11:10:14.644Z,42.40
2019-02-26T11:10:52.368Z,42.50
2019-02-26T11:11:30.423Z,42.40
2019-02-26T11:12:08.318Z,42.50
2019-02-26T11:12:42.714Z,42.40
2019-02-26T11:13:20.359Z,42.10
2019-02-26T11:13:55.745Z,41.70
2019-02-26T11:14:33.567Z,41.60
2019-02-26T11:15:09.263Z,41.50
2019-02-26T11:15:44.870Z,41.30
2019-02-26T11:16:25.228Z,40.40
2019-02-26T11:16:58.219Z,40.30
2019-02-26T11:17:33.805Z,40.40
2019-02-26T11:18:11.625Z,40.10
2019-02-26T11:18:47.655Z,39.60
2019-02-26T11:19:25.268Z,39.70
2019-02-26T11:20:01.186Z,39.10
2019-02-26T11:20:38.242Z,38.80
2019-02-26T11:21:13.794Z,38.00
2019-02-26T11:21:50.775Z,38.20
2019-02-26T11:22:27.987Z,37.90
2019-02-26T11:23:06.130Z,37.80
2019-02-26T11:23:41.986Z,37.30
2019-02-26T11:24:18.223Z,37.00
2019-02-26T11:24:56.134Z,37.50
2019-02-26T11:25:31.065Z,37.20
2019-02-26T11:26:09.636Z,36.70
2019-02-26T11:26:44.058Z,36.50
2019-02-26T11:27:19.647Z,36.90
2019-02-26T11:27:56.438Z,36.00
2019-02-26T11:28:38.078Z,36.20
2019-02-26T11:29:10.896Z,36.00
2019-02-26T11:29:46.512Z,35.90
2019-02-26T11:30:23.708Z,35.90
2019-02-26T11:30:59.379Z,35.70
2019-02-26T11:31:36.518Z,35.50
2019-02-26T11:32:13.469Z,34.90
2019-02-26T11:32:49.527Z,34.70
2019-02-26T11:33:25.083Z,34.60
2019-02-26T11:34:03.500Z,34.60
2019-02-26T11:34:38.345Z,34.20
2019-02-26T11:35:16.771Z,34.20
2019-02-26T11:35:51.894Z,34.50
2019-02-26T11:36:30.016Z,34.50
2019-02-26T11:37:08.764Z,34.30
2019-02-26T11:37:42.488Z,34.40
2019-02-26T11:38:19.644Z,33.50
2019-02-26T11:38:55.358Z,33.50
2019-02-26T11:39:31.432Z,33.10
2019-02-26T11:40:08.680Z,32.80
2019-02-26T11:40:44.239Z,32.70
2019-02-26T11:41:19.775Z,32.30
2019-02-26T11:41:56.830Z,32.10
2019-02-26T11:42:32.627Z,32.00
2019-02-26T11:43:11.651Z,31.60
2019-02-26T11:43:45.778Z,31.60
2019-02-26T11:44:23.408Z,31.40
2019-02-26T11:44:58.551Z,31.30
2019-02-26T11:45:36.969Z,30.60
2019-02-26T11:46:12.455Z,30.50
2019-02-26T11:46:49.357Z,30.30
2019-02-26T11:47:27.004Z,30.20
2019-02-26T11:48:03.813Z,30.20
2019-02-26T11:48:39.895Z,30.00
2019-02-26T11:49:16.950Z,29.90
2019-02-26T11:49:52.758Z,29.90
2019-02-26T11:50:28.548Z,29.90
2019-02-26T11:51:04.132Z,29.70
2019-02-26T11:51:41.810Z,29.80
2019-02-26T11:52:19.563Z,29.80
2019-02-26T11:52:55.053Z,29.40
2019-02-26T11:53:31.057Z,28.80
2019-02-26T11:54:08.273Z,29.00
2019-02-26T11:54:44.647Z,29.00
2019-02-26T11:55:23.082Z,28.80
2019-02-26T11:55:59.906Z,28.80
2019-02-26T11:56:39.674Z,29.00
2019-02-26T11:57:15.192Z,28.80
2019-02-26T11:57:51.518Z,28.70
2019-02-26T11:58:27.350Z,28.70
2019-02-26T11:59:06.521Z,28.50
2019-02-26T11:59:42.499Z,28.30
2019-02-26T12:00:25.650Z,28.10
2019-02-26T12:01:01.523Z,28.00
2019-02-26T12:01:39.523Z,27.90
2019-02-26T12:02:14.717Z,27.90
2019-02-26T12:02:50.267Z,27.70
2019-02-26T12:03:28.037Z,27.40
2019-02-26T12:04:04.194Z,27.00
2019-02-26T12:04:40.482Z,26.80
2019-02-26T12:05:16.058Z,27.00
2019-02-26T12:05:53.541Z,26.70
2019-02-26T12:06:28.935Z,26.70
2019-02-26T12:07:06.775Z,26.80
2019-02-26T12:07:41.774Z,26.90
2019-02-26T12:08:20.042Z,26.60
2019-02-26T12:08:54.923Z,25.90
2019-02-26T12:09:34.707Z,26.10
2019-02-26T12:10:12.073Z,26.10
2019-02-26T12:10:46.129Z,26.10
2019-02-26T12:11:23.352Z,26.00
2019-02-26T12:12:00.890Z,26.00